Nearby METAR Reports

 

KSFB - Sanford/Orlando, Florida, USA
Distance from station: E 8mi, 12km
Updated: Wed 11/22/17 1:53am EST
Overcast
Overcast
 Wind from N
Wind: N 8 mph , 13 km/h
Temperature: 66°F , 19°C
Dew Point: 64°F , 18°C
Humidity: 94%
Barometer: 29.95 inHg , 1014.2 hPa
Clouds: Overcast
Visibility: 10 miles , 16 km
Cloud details: Few Clouds 500 ft
Overcast 1700 ft
2017/11/22 06:53 KSFB 220653Z AUTO 01007KT 10SM FEW005 OVC017 19/18 A2995 RMK AO2 SLP140 T01890178
KORL - Orlando, Florida, USA
Distance from station: S 15mi, 24km
Updated: Wed 11/22/17 2:21am EST
Mostly cloudy
Mostly cloudy
 Wind from N
Wind: N 6 mph , 9 km/h
Temperature: 66°F , 19°C
Dew Point: 64°F , 18°C
Humidity: 94%
Barometer: 29.94 inHg , 1013.9 hPa
Clouds: Mostly cloudy
Visibility: 10 miles , 16 km
Cloud details: Few Clouds 1100 ft
Partly cloudy 3300 ft
Mostly cloudy 6500 ft
2017/11/22 07:21 KORL 220721Z AUTO 36005KT 10SM FEW011 SCT033 BKN065 19/18 A2994 RMK AO2 T01890183
 
KDED - Deland, Florida, USA
Distance from station: N 21mi, 34km
Updated: Wed 11/22/17 2:15am EST
Mist, Overcast
Mist, Overcast
 Wind from NNE
Wind: NNE 7 mph , 11 km/h
Temperature: 64°F , 18°C
Dew Point: 64°F , 18°C
Humidity: 100%
Barometer: 29.95 inHg , 1014.2 hPa
Summary: Mist
Clouds: Overcast
Visibility: 4 miles , 6 km
Cloud details: Overcast 300 ft
2017/11/22 07:15 KDED 220715Z AUTO 02006KT 4SM BR OVC003 18/18 A2995 RMK AO2
KMCO - Orlando, Florida, USA
Distance from station: S 24mi, 39km
Updated: Wed 11/22/17 1:59am EST
Overcast
Overcast
 Wind from NNW
Wind: NNW 8 mph , 13 km/h
Temperature: 64°F , 18°C
Dew Point: 64°F , 18°C
Humidity: 100%
Barometer: 29.95 inHg , 1014.2 hPa
Clouds: Overcast
Visibility: 10 miles , 16 km
Cloud details: Mostly cloudy 1400 ft
Mostly cloudy 6500 ft
Overcast 25000 ft
2017/11/22 06:59 KMCO 220659Z 34007KT 10SM BKN014 BKN065 OVC250 18/18 A2995 RMK AO2 T01830183
 
KLEE - Leesburg, Florida, USA
Distance from station: W 29mi, 47km
Updated: Wed 11/22/17 2:16am EST
Overcast
Overcast
 Wind from NNE
Wind: NNE 9 mph , 15 km/h
Temperature: 66°F , 19°C
Dew Point: 64°F , 18°C
Humidity: 94%
Barometer: 29.97 inHg , 1014.9 hPa
Clouds: Overcast
Visibility: 10 miles , 16 km
Cloud details: Overcast 400 ft
2017/11/22 07:16 KLEE 220716Z AUTO 02008KT 10SM OVC004 19/18 A2997 RMK AO2 T01890183
KEVB - New Smyrna Beach, Florida, USA
Distance from station: NE 31mi, 49km
Updated: Tue 11/21/17 9:50pm EST
NOT Current
Mostly cloudy
Mostly cloudy
 Wind from calm
Wind: Calm
Temperature: 66°F , 19°C
Dew Point: 64°F , 18°C
Humidity: 94%
Barometer: 29.98 inHg , 1015.2 hPa
Clouds: Mostly cloudy
Visibility: 7 miles , 11 km
Cloud details: Mostly cloudy 4000 ft
2017/11/22 02:50 KEVB 220250Z 00000KT 7SM BKN040 19/18 A2998
 
KDAB - Daytona Beach, Florida, USA
Distance from station: NNE 33mi, 53km
Updated: Wed 11/22/17 1:53am EST
Mostly cloudy
Mostly cloudy
 Wind from N
Wind: N 9 mph , 15 km/h
Temperature: 64°F , 18°C
Dew Point: 64°F , 18°C
Humidity: 100%
Barometer: 29.96 inHg , 1014.6 hPa
Clouds: Mostly cloudy
Visibility: 8 miles , 13 km
Cloud details: Mostly cloudy 600 ft
Mostly cloudy 3400 ft
2017/11/22 06:53 KDAB 220653Z 35008KT 8SM BKN006 BKN034 18/18 A2996 RMK AO2 RAE47 SLP143 P0012 T01830183 $
KISM - Kissimmee/Orland, Florida, USA
Distance from station: S 34mi, 55km
Updated: Wed 11/22/17 1:56am EST
Clear
Clear
 Wind from N
Wind: N 6 mph , 9 km/h
Temperature: 63°F , 17°C
Dew Point: 63°F , 17°C
Humidity: 100%
Barometer: 29.95 inHg , 1014.2 hPa
Clouds: Clear
Visibility: 10 miles , 16 km
2017/11/22 06:56 KISM 220656Z AUTO 35005KT 10SM CLR 17/17 A2995 RMK AO2 SLP145 T01720167
 
KTIX - Titusville, Florida, USA
Distance from station: ESE 38mi, 61km
Updated: Tue 11/21/17 8:47pm EST
NOT Current
Partly cloudy
Partly cloudy
 Wind from N
Wind: N 5 mph , 7 km/h
Temperature: 68°F , 20°C
Dew Point: 66°F , 19°C
Humidity: 94%
Barometer: 29.95 inHg , 1014.2 hPa
Clouds: Partly cloudy
Visibility: 7 miles , 11 km
Cloud details: Partly cloudy 6000 ft
2017/11/22 01:47 KTIX 220147Z 35004KT 7SM SCT060 20/19 A2995 RMK LAST
KOMN - Ormond Beach Vor, Florida, USA
Distance from station: NNE 39mi, 63km
Updated: Tue 11/21/17 6:50pm EST
NOT Current
Overcast
Overcast
 Wind from calm
Wind: Calm
Temperature: 66°F , 19°C
Dew Point: 64°F , 18°C
Humidity: 94%
Barometer: 29.96 inHg , 1014.6 hPa
Clouds: Overcast
Visibility: 7 miles , 11 km
Cloud details: Overcast 10000 ft
2017/11/21 23:50 KOMN 212350Z 00000KT 7SM OVC100 19/18 A2996 RMK LAST
 
KTTS - Nasa Shuttle Fcl, Florida, USA
Distance from station: ESE 39mi, 63km
Updated: Wed 11/22/17 2:25am EST
Light rain, Mist, Overcast
Light rain, Mist, Overcast
 Wind from N
Wind: N 6 mph , 9 km/h
Temperature: 66°F , 19°C
Dew Point: 66°F , 19°C
Humidity: 100%
Barometer: 29.92 inHg , 1013.2 hPa
Summary: Light rain, Mist
Clouds: Overcast
Visibility: 4 miles , 6 km
Cloud details: Partly cloudy 200 ft
Overcast 1800 ft
2017/11/22 07:25 KTTS 220725Z AUTO 01005KT 4SM -RA BR SCT002 OVC018 19/19 A2992 RMK AO2 DZB05E14RAB14 OVC V BKN SLP136
KVVG - The Villages, Florida, USA
Distance from station: WNW 40mi, 64km
Updated: Wed 11/22/17 2:10am EST
Mist
Mist
 Wind from E
Wind: E 5 mph , 7 km/h
Temperature: 66°F , 19°C
Dew Point: 66°F , 19°C
Humidity: 100%
Barometer: 29.87 inHg , 1011.5 hPa
Summary: Mist
Visibility: 6 miles , 10 km
2017/11/22 07:10 KVVG 220710Z AUTO 09004KT 6SM BR 19/19 A2987 RMK A01
 
KXMR - Cape Canaveral, Florida, USA
Distance from station: ESE 51mi, 83km
Updated: Wed 11/22/17 2:33am EST
Mist, Clear
Mist, Clear
 Wind from WNW
Wind: WNW 6 mph , 9 km/h
Temperature: 64°F , 18°C
Dew Point: 64°F , 18°C
Humidity: 100%
Barometer: 29.92 inHg , 1013.2 hPa
Summary: Mist
Clouds: Clear
Visibility: 3 miles , 5 km
2017/11/22 07:33 KXMR 220733Z AUTO 30005KT 3SM R31/4500FT BR CLR 18/18 A2992 RMK AO2 SLP135 $
KGIF - Winter Haven, Florida, USA
Distance from station: SSW 55mi, 88km
Updated: Wed 11/22/17 2:20am EST
Mist, Mostly cloudy
Mist, Mostly cloudy
 Wind from N
Wind: N 5 mph , 7 km/h
Temperature: 63°F , 17°C
Dew Point: 63°F , 17°C
Humidity: 100%
Barometer: 29.95 inHg , 1014.2 hPa
Summary: Mist
Clouds: Mostly cloudy
Visibility: 6 miles , 10 km
Cloud details: Mostly cloudy 200 ft
2017/11/22 07:20 KGIF 220720Z AUTO 35004KT 6SM BR BKN002 17/17 A2995 RMK AO2 T01720172
 
KCOF - Patrick Afb/Coco, Florida, USA
Distance from station: SE 58mi, 94km
Updated: Wed 11/22/17 1:58am EST
Clear
Clear
 Wind from NNW
Wind: NNW 3 mph , 6 km/h
Temperature: 68°F , 20°C
Dew Point: 68°F , 20°C
Humidity: 100%
Barometer: 29.92 inHg , 1013.2 hPa
Clouds: Clear
Visibility: 10 miles , 16 km
2017/11/22 06:58 KCOF 220658Z AUTO 33003KT 10SM CLR 20/20 A2992 RMK AO2 SLP136 T01950195 $
KINF - Inverness, Florida, USA
Distance from station: W 59mi, 95km
Updated: Wed 11/22/17 2:35am EST
Overcast
Overcast
 Wind from calm
Wind: Calm
Temperature: 63°F , 17°C
Dew Point: 63°F , 17°C
Humidity: 100%
Barometer: 29.97 inHg , 1014.9 hPa
Clouds: Overcast
Visibility: 10 miles , 16 km
Cloud details: Partly cloudy 400 ft
Overcast 1700 ft
2017/11/22 07:35 KINF 220735Z AUTO 00000KT 10SM SCT004 OVC017 17/17 A2997 R
 
KOCF - Ocala Muni, Florida, USA
Distance from station: WNW 60mi, 96km
Updated: Wed 11/22/17 1:51am EST
Partly cloudy
Partly cloudy
 Wind from varies
Wind: varies 3 mph , 6 km/h
Temperature: 64°F , 18°C
Dew Point: 61°F , 16°C
Humidity: 88%
Barometer: 29.97 inHg , 1014.9 hPa
Clouds: Partly cloudy
Visibility: 10 miles , 16 km
Cloud details: Few Clouds 300 ft
Partly cloudy 1100 ft
2017/11/22 06:51 KOCF 220651Z AUTO VRB03KT 10SM FEW003 SCT011 18/16 A2997 RMK AO2 SLP149 T01780161
KZPH - Zephyrhills, Florida, USA
Distance from station: SW 61mi, 99km
Updated: Wed 11/22/17 2:55am EST
Fog, Overcast
Fog, Overcast
 Wind from N
Wind: N 3 mph , 6 km/h
Temperature: 61°F , 16°C
Dew Point: 61°F , 16°C
Humidity: 100%
Barometer: 29.96 inHg , 1014.6 hPa
Summary: Fog
Clouds: Overcast
Visibility: 1/2 mile , 0.8 km
Cloud details: Overcast 100 ft
2017/11/22 07:55 KZPH 220755Z AUTO 01003KT 1/2SM FG OVC001 16/16 A2996 RMK AO2 T01580158
 
KMLB - Melbourne, Florida, USA
Distance from station: SE 62mi, 100km
Updated: Wed 11/22/17 1:53am EST
Clear
Clear
 Wind from WNW
Wind: WNW 3 mph , 6 km/h
Temperature: 64°F , 18°C
Dew Point: 63°F , 17°C
Humidity: 94%
Barometer: 29.92 inHg , 1013.2 hPa
Clouds: Clear
Visibility: 9 miles , 14 km
2017/11/22 06:53 KMLB 220653Z AUTO 29003KT 9SM R09R/4000VP6000FT CLR 18/17 A2992 RMK AO2 SLP131 T01780172
KBOW - Bartow Municipal, Florida, USA
Distance from station: SSW 63mi, 102km
Updated: Wed 11/22/17 2:35am EST
Mist, Overcast
Mist, Overcast
 Wind from calm
Wind: Calm
Temperature: 61°F , 16°C
Barometer: 29.95 inHg , 1014.2 hPa
Summary: Mist
Clouds: Overcast
Visibility: 3/4 mile , 1.2 km
Cloud details: Overcast 400 ft
2017/11/22 07:35 KBOW 220735Z AUTO 00000KT 3/4SM BR OVC004 16/ A2995 RMK AO2